createdAt,value
2024-03-03T00:03:43.659Z,4.09
2024-03-03T00:07:43.747Z,4.06
2024-03-03T00:11:43.754Z,4.05
2024-03-03T00:15:43.688Z,4.07
2024-03-03T00:19:43.616Z,4.10
2024-03-03T00:23:43.732Z,4.15
2024-03-03T00:28:49.245Z,4.16
2024-03-03T00:31:44.211Z,4.05
2024-03-03T00:35:43.758Z,3.92
2024-03-03T00:39:43.689Z,3.82
2024-03-03T00:43:43.712Z,3.76
2024-03-03T00:47:44.497Z,3.73
2024-03-03T00:51:43.860Z,3.72
2024-03-03T00:55:47.394Z,3.70
2024-03-03T00:59:43.866Z,3.64
2024-03-03T01:03:43.756Z,3.63
2024-03-03T01:07:43.905Z,3.65
2024-03-03T01:11:45.900Z,3.70
2024-03-03T01:15:43.885Z,3.74
2024-03-03T01:19:43.801Z,3.76
2024-03-03T01:23:44.017Z,3.75
2024-03-03T01:31:45.088Z,3.74
2024-03-03T01:35:43.952Z,3.73
2024-03-03T01:39:44.114Z,3.71
2024-03-03T01:54:02.255Z,3.50
2024-03-03T01:58:31.903Z,3.49
2024-03-03T02:03:14.153Z,3.42
2024-03-03T02:06:03.387Z,3.34
2024-03-03T02:10:02.488Z,3.31
2024-03-03T02:14:02.280Z,3.20
2024-03-03T02:18:01.849Z,3.11
2024-03-03T02:22:01.971Z,3.12
2024-03-03T02:26:02.648Z,3.08
2024-03-03T02:30:03.171Z,3.05
2024-03-03T02:34:01.927Z,3.08
2024-03-03T02:38:01.920Z,3.09
2024-03-03T02:42:01.940Z,3.01
2024-03-03T02:46:02.029Z,2.95
2024-03-03T02:50:03.817Z,2.96
2024-03-03T02:54:02.370Z,2.95
2024-03-03T02:58:01.963Z,2.92
2024-03-03T03:02:02.391Z,2.91
2024-03-03T03:06:01.920Z,2.80
2024-03-03T03:10:02.096Z,2.73
2024-03-03T03:14:01.965Z,2.70
2024-03-03T03:18:03.838Z,2.64
2024-03-03T03:22:15.936Z,2.60
2024-03-03T03:26:02.233Z,2.57
2024-03-03T03:30:02.015Z,2.54
2024-03-03T03:34:02.121Z,2.56
2024-03-03T03:38:02.050Z,2.51
2024-03-03T03:46:02.163Z,2.55
2024-03-03T03:50:02.411Z,2.59
2024-03-03T03:54:03.961Z,2.53
2024-03-03T03:58:02.741Z,2.54
2024-03-03T04:06:02.317Z,2.52
2024-03-03T04:10:02.490Z,2.53
2024-03-03T04:15:16.779Z,2.48
2024-03-03T04:18:02.218Z,2.46
2024-03-03T04:22:02.229Z,2.37
2024-03-03T04:26:04.209Z,2.29
2024-03-03T04:34:02.379Z,2.32
2024-03-03T04:38:02.211Z,2.34
2024-03-03T04:42:02.526Z,2.30
2024-03-03T04:46:54.155Z,2.23
2024-03-03T04:54:02.421Z,2.28
2024-03-03T04:58:03.130Z,2.24
2024-03-03T05:02:03.832Z,2.22
2024-03-03T05:06:02.684Z,2.25
2024-03-03T05:10:02.857Z,2.30
2024-03-03T05:18:03.842Z,2.27
2024-03-03T05:22:06.438Z,2.17
2024-03-03T05:26:02.486Z,2.19
2024-03-03T05:30:03.051Z,2.20
2024-03-03T05:34:03.994Z,2.06
2024-03-03T05:38:02.353Z,2.04
2024-03-03T05:46:02.610Z,2.01
2024-03-03T05:50:11.633Z,2.07
2024-03-03T05:54:02.533Z,2.13
2024-03-03T05:58:02.514Z,2.15
2024-03-03T06:02:03.150Z,2.11
2024-03-03T06:06:04.889Z,2.14
2024-03-03T06:10:04.616Z,2.11
2024-03-03T06:14:22.032Z,2.06
2024-03-03T06:22:02.773Z,2.11
2024-03-03T06:26:02.501Z,2.14
2024-03-03T06:30:03.746Z,2.18
2024-03-03T06:34:32.402Z,2.20
2024-03-03T06:42:53.847Z,2.20
2024-03-03T06:46:53.748Z,2.16
2024-03-03T06:50:54.109Z,2.15
2024-03-03T06:54:53.884Z,2.16
2024-03-03T06:58:53.841Z,2.13
2024-03-03T07:06:54.701Z,2.18
2024-03-03T07:10:53.857Z,2.19
2024-03-03T07:14:53.876Z,2.15
2024-03-03T07:18:53.944Z,2.11
2024-03-03T07:22:55.013Z,2.03
2024-03-03T07:30:53.965Z,2.05
2024-03-03T07:34:53.964Z,2.06
2024-03-03T07:38:54.075Z,2.02
2024-03-03T07:42:54.299Z,2.01
2024-03-03T07:46:53.959Z,2.03
2024-03-03T07:50:54.857Z,2.02
2024-03-03T07:54:54.008Z,2.06
2024-03-03T07:58:54.824Z,2.12
2024-03-03T08:03:10.067Z,2.13
2024-03-03T08:06:54.222Z,2.08
2024-03-03T08:10:54.165Z,2.05
2024-03-03T08:14:54.085Z,2.00
2024-03-03T08:18:54.083Z,2.01
2024-03-03T08:22:53.966Z,2.03
2024-03-03T08:26:54.064Z,2.09
2024-03-03T08:30:54.102Z,2.16
2024-03-03T08:34:54.139Z,2.23
2024-03-03T08:38:54.011Z,2.29
2024-03-03T08:48:52.259Z,2.32
2024-03-03T08:50:56.395Z,2.39
2024-03-03T08:54:54.729Z,2.37
2024-03-03T08:58:54.097Z,2.31
2024-03-03T09:02:54.252Z,2.38
2024-03-03T09:06:55.308Z,2.48
2024-03-03T09:11:01.312Z,2.55
2024-03-03T09:14:54.222Z,2.60
2024-03-03T09:18:54.485Z,2.62
2024-03-03T09:22:54.141Z,2.68
2024-03-03T09:26:54.371Z,2.74
2024-03-03T09:31:00.065Z,2.81
2024-03-03T09:34:54.493Z,2.90
2024-03-03T09:38:54.190Z,2.94
2024-03-03T09:42:56.983Z,2.96
2024-03-03T09:46:54.535Z,3.06
2024-03-03T09:50:57.306Z,3.10
2024-03-03T09:58:54.380Z,3.11
2024-03-03T10:02:55.793Z,3.19
2024-03-03T10:06:59.945Z,3.30
2024-03-03T10:11:02.219Z,3.42
2024-03-03T10:14:58.022Z,3.52
2024-03-03T10:18:59.128Z,3.59
2024-03-03T10:22:54.576Z,3.65
2024-03-03T10:26:56.374Z,3.70
2024-03-03T10:34:56.565Z,3.81
2024-03-03T10:38:54.966Z,3.88
2024-03-03T10:42:55.086Z,3.96
2024-03-03T10:46:54.497Z,4.01
2024-03-03T10:50:54.555Z,4.11
2024-03-03T10:54:55.175Z,4.18
2024-03-03T10:58:56.691Z,4.23
2024-03-03T11:02:55.740Z,4.29
2024-03-03T11:06:54.569Z,4.34
2024-03-03T11:11:02.890Z,4.45
2024-03-03T11:14:56.037Z,4.55
2024-03-03T11:18:59.365Z,4.68
2024-03-03T11:23:08.403Z,4.74
2024-03-03T11:27:04.477Z,4.86
2024-03-03T11:30:55.711Z,4.97
2024-03-03T11:34:57.300Z,5.11
2024-03-03T11:38:57.545Z,5.19
2024-03-03T11:42:54.716Z,5.28
2024-03-03T11:46:56.936Z,5.41
2024-03-03T11:54:54.855Z,5.61
2024-03-03T11:58:54.840Z,5.71
2024-03-03T12:02:56.008Z,5.75
2024-03-03T12:11:22.450Z,5.93
2024-03-03T12:13:38.497Z,5.94
2024-03-03T12:15:13.448Z,5.98
2024-03-03T12:19:15.354Z,6.05
2024-03-03T12:23:16.132Z,6.14
2024-03-03T12:27:13.562Z,6.23
2024-03-03T12:31:13.549Z,6.24
2024-03-03T12:35:14.631Z,6.28
2024-03-03T12:39:13.823Z,6.34
2024-03-03T12:43:14.469Z,6.36
2024-03-03T12:47:14.482Z,6.42
2024-03-03T12:51:14.054Z,6.48
2024-03-03T12:55:15.372Z,6.63
2024-03-03T13:03:13.779Z,6.74
2024-03-03T13:07:13.544Z,6.87
2024-03-03T13:11:14.087Z,7.00
2024-03-03T13:17:23.254Z,7.05
2024-03-03T13:18:44.322Z,7.05
2024-03-03T13:23:15.007Z,7.17
2024-03-03T13:27:13.546Z,7.23
2024-03-03T13:31:13.709Z,7.26
2024-03-03T13:35:13.548Z,7.30
2024-03-03T13:39:57.093Z,7.36
2024-03-03T13:43:14.422Z,7.46
2024-03-03T13:47:14.257Z,7.53
2024-03-03T13:51:14.758Z,7.52
2024-03-03T13:55:14.058Z,7.51
2024-03-03T14:03:13.856Z,7.58
2024-03-03T14:07:13.833Z,7.64
2024-03-03T14:11:14.080Z,7.72
2024-03-03T14:15:13.785Z,7.69
2024-03-03T14:23:14.593Z,7.71
2024-03-03T14:31:53.108Z,7.77
2024-03-03T14:35:13.876Z,7.81
2024-03-03T14:39:15.036Z,7.82
2024-03-03T14:43:13.837Z,7.81
2024-03-03T14:54:00.207Z,7.87
2024-03-03T14:55:14.032Z,7.86
2024-03-03T15:03:14.631Z,7.96
2024-03-03T15:07:14.575Z,8.07
2024-03-03T15:11:13.920Z,8.13
2024-03-03T15:15:13.991Z,8.29
2024-03-03T15:19:14.054Z,8.44
2024-03-03T15:23:13.880Z,8.52
2024-03-03T15:27:14.254Z,8.54
2024-03-03T15:31:13.962Z,8.55
2024-03-03T15:35:14.101Z,8.70
2024-03-03T15:39:14.168Z,8.77
2024-03-03T15:43:14.057Z,8.78
2024-03-03T15:47:14.942Z,8.68
2024-03-03T15:51:14.016Z,8.63
2024-03-03T15:55:14.242Z,8.60
2024-03-03T15:59:14.233Z,8.59
2024-03-03T16:03:14.133Z,8.56
2024-03-03T16:10:55.571Z,8.56
2024-03-03T16:11:14.035Z,8.46
2024-03-03T16:15:14.206Z,8.44
2024-03-03T16:19:14.165Z,8.49
2024-03-03T16:23:14.568Z,8.54
2024-03-03T16:27:14.352Z,8.82
2024-03-03T16:31:14.200Z,9.22
2024-03-03T16:35:14.534Z,9.50
2024-03-03T16:39:14.128Z,9.67
2024-03-03T16:43:14.261Z,9.87
2024-03-03T16:47:14.228Z,10.06
2024-03-03T16:51:14.339Z,10.20
2024-03-03T16:55:15.151Z,10.30
2024-03-03T16:59:14.155Z,10.42
2024-03-03T17:03:14.955Z,10.52
2024-03-03T17:07:14.421Z,10.57
2024-03-03T17:11:14.220Z,10.58
2024-03-03T17:15:14.405Z,10.54
2024-03-03T17:19:14.456Z,10.36
2024-03-03T17:23:16.254Z,10.01
2024-03-03T17:27:18.293Z,9.67
2024-03-03T17:31:14.423Z,9.41
2024-03-03T17:35:14.234Z,9.15
2024-03-03T17:39:53.477Z,8.93
2024-03-03T17:43:14.330Z,8.76
2024-03-03T17:47:15.259Z,8.59
2024-03-03T17:49:28.871Z,8.59
2024-03-03T17:51:14.301Z,8.41
2024-03-03T17:55:14.663Z,8.24
2024-03-03T17:59:15.244Z,8.11
2024-03-03T18:03:14.481Z,7.97
2024-03-03T18:07:16.553Z,7.83
2024-03-03T18:11:14.504Z,7.72
2024-03-03T18:15:14.479Z,7.60
2024-03-03T18:19:15.250Z,7.52
2024-03-03T18:23:14.623Z,7.41
2024-03-03T18:27:14.585Z,7.29
2024-03-03T18:31:14.543Z,7.21
2024-03-03T18:35:14.604Z,7.12
2024-03-03T18:39:14.472Z,7.02
2024-03-03T18:43:14.584Z,6.93
2024-03-03T18:47:14.628Z,6.81
2024-03-03T18:51:14.597Z,6.73
2024-03-03T18:55:15.023Z,6.64
2024-03-03T18:59:14.979Z,6.56
2024-03-03T19:03:14.492Z,6.48
2024-03-03T19:07:14.733Z,6.39
2024-03-03T19:11:14.527Z,6.36
2024-03-03T19:14:53.031Z,6.36
2024-03-03T19:15:14.654Z,6.33
2024-03-03T19:19:14.549Z,6.26
2024-03-03T19:23:14.711Z,6.19
2024-03-03T19:27:14.652Z,6.13
2024-03-03T19:31:14.812Z,6.08
2024-03-03T19:35:15.455Z,6.04
2024-03-03T19:39:34.448Z,5.98
2024-03-03T19:43:14.579Z,5.96
2024-03-03T19:47:14.747Z,5.92
2024-03-03T19:51:17.988Z,5.85
2024-03-03T19:55:14.937Z,5.81
2024-03-03T19:59:14.990Z,5.71
2024-03-03T20:03:14.812Z,5.58
2024-03-03T20:07:14.989Z,5.51
2024-03-03T20:11:15.036Z,5.53
2024-03-03T20:15:14.913Z,5.64
2024-03-03T20:19:14.940Z,5.75
2024-03-03T20:23:14.780Z,5.84
2024-03-03T20:27:14.983Z,5.85
2024-03-03T20:31:14.765Z,5.84
2024-03-03T20:39:15.003Z,5.77
2024-03-03T20:43:16.173Z,5.70
2024-03-03T20:47:14.861Z,5.66
2024-03-03T20:51:15.352Z,5.62
2024-03-03T20:55:15.196Z,5.52
2024-03-03T20:59:14.821Z,5.51
2024-03-03T21:03:15.339Z,5.50
2024-03-03T21:07:16.181Z,5.45
2024-03-03T21:11:15.144Z,5.41
2024-03-03T21:15:15.176Z,5.34
2024-03-03T21:19:15.381Z,5.26
2024-03-03T21:23:14.884Z,5.23
2024-03-03T21:27:15.073Z,5.31
2024-03-03T21:35:15.082Z,5.26
2024-03-03T21:39:15.256Z,5.28
2024-03-03T21:47:17.474Z,5.26
2024-03-03T21:51:15.420Z,5.17
2024-03-03T21:55:15.184Z,5.05
2024-03-03T21:59:15.240Z,4.95
2024-03-03T22:03:15.166Z,4.87
2024-03-03T22:07:15.222Z,4.84
2024-03-03T22:11:15.551Z,4.83
2024-03-03T22:15:15.106Z,4.74
2024-03-03T22:19:15.324Z,4.67
2024-03-03T22:23:15.272Z,4.62
2024-03-03T22:27:15.058Z,4.60
2024-03-03T22:31:15.129Z,4.58
2024-03-03T22:35:15.191Z,4.56
2024-03-03T22:39:15.641Z,4.45
2024-03-03T22:43:15.242Z,4.42
2024-03-03T22:47:15.150Z,4.41
2024-03-03T22:51:15.266Z,4.42
2024-03-03T22:55:15.586Z,4.36
2024-03-03T22:59:15.329Z,4.28
2024-03-03T23:03:15.520Z,4.23
2024-03-03T23:07:15.748Z,4.17
2024-03-03T23:11:15.600Z,4.09
2024-03-03T23:15:15.631Z,3.99
2024-03-03T23:19:15.353Z,3.95
2024-03-03T23:23:15.357Z,3.90
2024-03-03T23:27:15.345Z,3.71
2024-03-03T23:31:15.895Z,3.58
2024-03-03T23:35:15.370Z,3.53
2024-03-03T23:39:16.258Z,3.52
2024-03-03T23:47:15.487Z,3.56
2024-03-03T23:51:15.372Z,3.57
2024-03-03T23:55:16.063Z,3.52
2024-03-03T23:59:15.528Z,3.39
